Time;durP1;ratioP1;P1;durP2;ratioP2;P2;SDS_P1;SDS_P2;PMS_P1;PMS_P2;Temp;Humidity;BMP_temperature;BMP_pressure;BME280_temperature;BME280_humidity;BME280_pressure;Samples;Min_cycle;Max_cycle;Signal;HPM_P1;HPM_P2
2022/06/19 00:01:28;;;;;;;5.60;1.90;;;;;;;23.61;39.62;98787.65;106140;1271;25544;-85
2022/06/19 00:04:09;;;;;;;8.00;2.10;;;;;;;23.58;39.77;98782.87;106001;1272;22570;-85
2022/06/19 00:06:36;;;;;;;6.20;2.00;;;;;;;23.57;39.81;98781.11;106149;1271;24224;-85
2022/06/19 00:09:08;;;;;;;6.60;2.10;;;;;;;23.58;39.69;98779.52;106429;1271;22550;-88
2022/06/19 00:11:39;;;;;;;5.20;1.90;;;;;;;23.62;39.78;98779.15;106466;1271;22836;-85
2022/06/19 00:14:09;;;;;;;4.50;1.70;;;;;;;23.64;39.95;98776.56;106450;1271;25300;-84
2022/06/19 00:16:52;;;;;;;4.40;1.70;;;;;;;23.63;39.90;98776.65;106159;1271;22747;-84
2022/06/19 00:19:19;;;;;;;4.80;1.80;;;;;;;23.60;40.08;98776.98;106308;1271;22540;-89
2022/06/19 00:21:47;;;;;;;5.20;1.90;;;;;;;23.58;40.12;98771.98;106328;1271;22713;-84
2022/06/19 00:24:23;;;;;;;6.40;2.00;;;;;;;23.55;40.38;98766.05;106153;1271;22564;-89
2022/06/19 00:26:52;;;;;;;6.50;2.10;;;;;;;23.52;40.56;98760.98;106188;1271;22556;-86
2022/06/19 00:29:19;;;;;;;6.50;2.20;;;;;;;23.48;40.34;98762.65;106271;1271;23924;-85
2022/06/19 00:31:46;;;;;;;6.90;2.00;;;;;;;23.45;40.64;98762.08;106326;1271;22541;-85
2022/06/19 00:34:16;;;;;;;4.40;1.90;;;;;;;23.42;40.80;98762.78;106201;1270;24238;-88
2022/06/19 00:36:49;;;;;;;9.20;2.20;;;;;;;23.38;40.71;98761.99;106320;1271;25559;-85
2022/06/19 00:39:19;;;;;;;6.60;2.30;;;;;;;23.36;40.88;98765.84;106389;1271;23075;-86
2022/06/19 00:41:47;;;;;;;10.30;3.40;;;;;;;23.32;41.11;98763.80;106181;1271;22877;-86
2022/06/19 00:44:16;;;;;;;8.70;2.80;;;;;;;23.28;41.20;98760.64;106412;1271;24236;-89
2022/06/19 00:47:07;;;;;;;6.30;2.50;;;;;;;23.25;41.31;98758.94;106382;1271;24392;-86
2022/06/19 00:49:39;;;;;;;5.90;2.10;;;;;;;23.20;41.30;98758.02;106481;1271;24286;-87
2022/06/19 00:52:21;;;;;;;7.00;2.50;;;;;;;23.15;41.18;98755.05;106329;1271;22553;-85
2022/06/19 00:54:53;;;;;;;6.80;2.00;;;;;;;23.12;41.34;98761.11;106102;1271;22558;-86
2022/06/19 00:57:22;;;;;;;6.20;2.20;;;;;;;23.09;41.52;98758.73;106510;1271;22639;-86
2022/06/19 01:00:03;;;;;;;5.80;2.60;;;;;;;23.08;41.47;98757.05;106199;1271;23937;-85
2022/06/19 01:02:31;;;;;;;7.90;2.50;;;;;;;23.05;41.37;98756.45;106276;1271;22595;-83
2022/06/19 01:05:00;;;;;;;6.00;1.90;;;;;;;23.02;41.54;98754.47;106509;1271;22745;-87
2022/06/19 01:07:28;;;;;;;7.50;2.10;;;;;;;23.00;41.65;98755.48;106497;1271;22769;-85
2022/06/19 01:09:56;;;;;;;7.10;2.50;;;;;;;22.99;41.54;98754.72;106317;1271;22540;-90
2022/06/19 01:12:25;;;;;;;5.50;2.40;;;;;;;22.96;41.66;98754.82;106285;1269;22525;-85
2022/06/19 01:15:06;;;;;;;5.90;2.30;;;;;;;22.94;41.82;98752.20;106354;1271;24501;-85
2022/06/19 01:17:37;;;;;;;7.90;2.40;;;;;;;22.90;41.90;98749.23;106589;1270;24234;-85
2022/06/19 01:20:12;;;;;;;8.10;2.50;;;;;;;22.85;41.89;98743.65;106114;1271;22553;-86
2022/06/19 01:22:57;;;;;;;5.60;2.50;;;;;;;22.81;42.15;98739.95;106130;1271;23164;-84
2022/06/19 01:25:29;;;;;;;7.90;2.60;;;;;;;22.77;42.07;98740.68;106526;1271;25573;-85
2022/06/19 01:30:48;;;;;;;7.90;2.00;;;;;;;22.72;42.29;98732.14;106466;1271;22992;-88
2022/06/19 01:33:19;;;;;;;6.10;2.30;;;;;;;22.71;42.40;98730.44;106559;1271;25409;-85
2022/06/19 01:35:50;;;;;;;8.50;2.50;;;;;;;22.70;42.32;98732.36;106570;1271;24258;-85
2022/06/19 01:38:20;;;;;;;8.80;3.20;;;;;;;22.67;42.36;98730.74;106640;1271;22553;-86
2022/06/19 01:40:52;;;;;;;6.60;2.50;;;;;;;22.65;42.47;98730.85;106490;1271;25336;-84
2022/06/19 01:43:20;;;;;;;5.70;2.40;;;;;;;22.65;42.61;98726.10;106456;1271;22983;-85
2022/06/19 01:45:52;;;;;;;6.70;1.90;;;;;;;22.66;42.64;98726.02;106496;1271;24281;-85
2022/06/19 01:48:22;;;;;;;5.70;1.90;;;;;;;22.65;42.62;98726.59;106497;1270;25284;-84
2022/06/19 01:50:51;;;;;;;7.90;2.30;;;;;;;22.64;42.64;98723.52;106565;1271;24020;-90
2022/06/19 01:53:41;;;;;;;7.30;2.30;;;;;;;22.61;42.73;98719.17;106316;1271;22715;-85
2022/06/19 01:56:11;;;;;;;7.70;2.30;;;;;;;22.58;42.83;98714.09;106348;1271;22525;-85
2022/06/19 01:58:44;;;;;;;7.20;2.40;;;;;;;22.57;42.89;98711.34;106506;1271;24361;-85
2022/06/19 02:01:12;;;;;;;6.10;2.20;;;;;;;22.56;42.82;98711.68;106520;1271;22546;-84
2022/06/19 02:04:00;;;;;;;7.00;2.10;;;;;;;22.53;42.99;98709.58;106563;1271;24491;-90
2022/06/19 02:06:32;;;;;;;7.30;2.20;;;;;;;22.53;43.02;98709.73;106380;1271;22549;-87
2022/06/19 02:09:01;;;;;;;8.80;2.50;;;;;;;22.51;43.02;98706.68;106515;1271;22796;-86
2022/06/19 02:11:33;;;;;;;6.90;1.90;;;;;;;22.52;43.02;98707.63;106432;1271;22548;-91
2022/06/19 02:14:04;;;;;;;9.60;2.50;;;;;;;22.54;43.15;98705.39;106567;1271;22535;-86
2022/06/19 02:16:35;;;;;;;5.70;2.10;;;;;;;22.55;43.06;98705.23;106416;1271;24284;-83
2022/06/19 02:19:03;;;;;;;7.00;2.10;;;;;;;22.56;43.23;98701.13;106673;1271;22598;-86
2022/06/19 02:21:38;;;;;;;6.60;2.30;;;;;;;22.57;43.28;98698.25;106469;1271;24236;-85
2022/06/19 02:24:07;;;;;;;5.60;2.00;;;;;;;22.57;43.23;98696.86;106513;1271;24266;-84
2022/06/19 02:26:37;;;;;;;6.80;2.10;;;;;;;22.55;43.42;98693.80;106463;1271;25358;-84
2022/06/19 02:29:09;;;;;;;5.20;2.00;;;;;;;22.57;43.36;98696.15;106376;1271;22692;-83
2022/06/19 02:31:41;;;;;;;5.50;2.30;;;;;;;22.57;43.39;98691.54;106411;1271;23158;-86
2022/06/19 02:34:26;;;;;;;8.00;2.30;;;;;;;22.55;43.44;98692.30;106486;1271;22567;-85
2022/06/19 02:36:59;;;;;;;7.70;2.70;;;;;;;22.53;43.53;98690.09;106435;1271;22611;-85
2022/06/19 02:40:01;;;;;;;9.30;3.10;;;;;;;22.49;43.65;98683.32;106556;1271;22481;-85
2022/06/19 02:42:46;;;;;;;9.30;3.10;;;;;;;22.46;43.75;98683.63;106493;1271;23265;-85
2022/06/19 02:45:23;;;;;;;8.20;2.70;;;;;;;22.41;43.63;98678.23;106424;1271;25302;-85
2022/06/19 02:47:52;;;;;;;6.60;2.60;;;;;;;22.36;43.58;98671.32;106385;1271;24183;-85
2022/06/19 02:50:26;;;;;;;9.20;2.40;;;;;;;22.33;43.81;98674.27;106361;1271;22614;-87
2022/06/19 02:52:54;;;;;;;5.30;2.40;;;;;;;22.30;43.80;98679.04;106420;1271;24412;-84
2022/06/19 02:55:22;;;;;;;8.20;2.30;;;;;;;22.27;43.98;98677.46;106260;1271;23160;-84
2022/06/19 02:57:50;;;;;;;8.00;2.50;;;;;;;22.25;43.91;98679.86;106404;1271;24247;-84
2022/06/19 03:00:26;;;;;;;6.30;2.30;;;;;;;22.22;43.91;98680.56;106567;1271;22527;-89
2022/06/19 03:03:07;;;;;;;6.90;2.40;;;;;;;22.20;44.04;98676.93;106289;1271;22567;-85
2022/06/19 03:05:43;;;;;;;5.60;2.50;;;;;;;22.17;44.17;98675.65;106286;1271;22988;-84
2022/06/19 03:08:21;;;;;;;8.20;2.70;;;;;;;22.12;44.26;98666.14;106453;1271;22567;-86
2022/06/19 03:10:50;;;;;;;6.70;2.60;;;;;;;22.09;44.28;98665.61;106380;1271;23892;-87
2022/06/19 03:13:21;;;;;;;7.60;2.50;;;;;;;22.07;44.22;98664.20;106441;1271;22525;-88
2022/06/19 03:16:02;;;;;;;9.70;3.80;;;;;;;22.06;44.42;98662.28;106478;1271;22544;-84
2022/06/19 03:18:30;;;;;;;9.90;4.40;;;;;;;22.06;44.37;98660.02;106386;1271;24201;-89
2022/06/19 03:21:07;;;;;;;11.30;3.50;;;;;;;22.06;44.40;98657.04;106268;1271;22703;-85
2022/06/19 03:23:39;;;;;;;7.90;2.70;;;;;;;22.07;44.46;98644.60;106241;1271;24868;-87
2022/06/19 03:26:06;;;;;;;7.90;2.50;;;;;;;22.09;44.64;98640.38;106381;1274;24905;-84
2022/06/19 03:28:33;;;;;;;5.90;2.40;;;;;;;22.13;44.57;98638.59;106434;1271;24404;-84
2022/06/19 03:31:13;;;;;;;9.60;3.00;;;;;;;22.17;44.70;98639.55;106276;1271;25299;-84
2022/06/19 03:33:52;;;;;;;12.40;4.90;;;;;;;22.20;44.65;98642.10;106318;1271;24185;-84
2022/06/19 03:36:26;;;;;;;10.30;4.80;;;;;;;22.22;44.84;98641.40;106181;1271;25521;-85
2022/06/19 03:38:53;;;;;;;10.30;4.30;;;;;;;22.24;44.69;98643.24;106172;1271;25237;-85
2022/06/19 03:41:25;;;;;;;10.40;3.60;;;;;;;22.27;44.76;98641.77;106082;1271;22533;-86
2022/06/19 03:43:54;;;;;;;7.70;2.60;;;;;;;22.29;44.99;98636.14;106327;1271;25204;-85
2022/06/19 03:46:33;;;;;;;6.40;2.70;;;;;;;22.33;44.98;98637.54;106301;1272;22735;-86
2022/06/19 03:49:09;;;;;;;10.90;2.80;;;;;;;22.35;45.15;98639.05;106124;1270;22722;-86
2022/06/19 03:51:36;;;;;;;12.90;4.40;;;;;;;22.37;45.04;98636.29;106282;1271;22681;-83
2022/06/19 03:54:34;;;;;;;;;;;;;;;;;;;;;
2022/06/19 03:57:02;;;;;;;8.00;2.50;;;;;;;22.47;45.03;98641.11;106338;1271;22694;-85
2022/06/19 03:59:34;;;;;;;6.10;2.60;;;;;;;22.52;45.07;98641.98;106302;1272;22558;-86
2022/06/19 04:02:03;;;;;;;7.80;2.30;;;;;;;22.58;45.23;98635.71;106221;1272;22557;-85
2022/06/19 04:04:40;;;;;;;8.40;2.30;;;;;;;22.65;45.10;98625.80;106485;1271;25294;-84
2022/06/19 04:07:11;;;;;;;5.60;2.10;;;;;;;22.71;45.17;98624.16;106327;1272;23658;-85
2022/06/19 04:09:42;;;;;;;9.50;2.90;;;;;;;22.76;45.19;98619.52;106405;1271;24061;-88
2022/06/19 04:12:10;;;;;;;14.50;4.90;;;;;;;22.80;45.26;98614.94;106309;1271;22525;-86
2022/06/19 04:14:37;;;;;;;6.80;2.60;;;;;;;22.85;45.04;98609.69;106241;1271;22528;-86
2022/06/19 04:17:06;;;;;;;8.80;2.50;;;;;;;22.91;45.13;98601.85;106235;1272;22525;-86
2022/06/19 04:19:33;;;;;;;6.50;2.20;;;;;;;23.00;45.17;98601.55;106322;1271;25483;-85
2022/06/19 04:22:00;;;;;;;6.40;2.00;;;;;;;23.08;45.13;98603.20;106518;1271;22745;-84
2022/06/19 04:24:27;;;;;;;5.90;2.00;;;;;;;23.14;45.27;98611.56;106308;1272;26484;-85
2022/06/19 04:26:54;;;;;;;5.60;2.10;;;;;;;23.23;45.27;98613.73;106217;1272;22556;-85
2022/06/19 04:29:21;;;;;;;5.70;2.10;;;;;;;23.29;45.27;98615.36;106351;1271;22697;-87
2022/06/19 04:31:49;;;;;;;6.20;2.00;;;;;;;23.36;45.33;98620.09;106358;1271;22690;-83
2022/06/19 04:34:19;;;;;;;6.30;1.90;;;;;;;23.43;45.21;98617.18;106349;1271;24233;-88
2022/06/19 04:36:47;;;;;;;7.20;2.00;;;;;;;23.52;45.36;98617.09;106495;1271;22530;-85
2022/06/19 04:39:14;;;;;;;8.40;2.20;;;;;;;23.62;45.24;98615.84;106530;1271;22685;-84
2022/06/19 04:41:43;;;;;;;7.40;1.90;;;;;;;23.70;45.15;98613.75;106332;1271;24225;-88
2022/06/19 04:44:14;;;;;;;5.90;2.00;;;;;;;23.79;45.00;98610.36;106385;1272;24279;-86
2022/06/19 04:46:41;;;;;;;6.00;2.10;;;;;;;23.89;44.96;98609.21;106460;1271;24210;-85
2022/06/19 04:49:09;;;;;;;7.30;2.10;;;;;;;23.99;45.21;98606.05;106490;1271;22590;-86
2022/06/19 04:51:36;;;;;;;8.00;2.30;;;;;;;24.09;44.95;98602.20;106334;1272;22552;-84
2022/06/19 04:54:03;;;;;;;8.30;2.70;;;;;;;24.20;45.25;98600.23;106497;1271;25332;-85
2022/06/19 04:56:30;;;;;;;7.20;2.40;;;;;;;24.32;45.06;98598.48;106368;1271;22532;-85
2022/06/19 04:58:57;;;;;;;8.00;2.90;;;;;;;24.42;44.96;98596.70;106408;1271;24253;-85
2022/06/19 05:01:35;;;;;;;7.40;3.00;;;;;;;24.53;44.95;98595.05;106381;1271;23200;-85
2022/06/19 05:04:06;;;;;;;6.90;2.10;;;;;;;24.64;44.91;98589.21;106238;1271;22528;-84
2022/06/19 05:06:34;;;;;;;5.40;2.00;;;;;;;24.74;44.80;98590.13;106425;1271;25228;-84
2022/06/19 05:09:02;;;;;;;6.00;2.20;;;;;;;24.83;44.93;98585.73;106347;1271;22869;-85
2022/06/19 05:11:33;;;;;;;6.30;2.20;;;;;;;24.95;44.94;98583.60;106355;1271;24227;-86
2022/06/19 05:14:02;;;;;;;7.60;2.00;;;;;;;25.04;44.83;98580.14;106416;1272;23591;-87
2022/06/19 05:16:30;;;;;;;8.90;3.20;;;;;;;25.12;44.75;98577.08;106537;1271;22694;-84
2022/06/19 05:18:58;;;;;;;7.50;2.50;;;;;;;25.19;44.65;98569.69;106526;1271;24325;-87
2022/06/19 05:21:26;;;;;;;6.60;1.90;;;;;;;25.27;44.81;98570.16;106496;1271;22540;-84
2022/06/19 05:23:55;;;;;;;4.90;2.00;;;;;;;25.36;44.54;98573.86;106487;1272;23233;-84
2022/06/19 05:26:31;;;;;;;7.00;2.30;;;;;;;25.41;44.57;98576.69;106392;1271;22620;-86
2022/06/19 05:28:59;;;;;;;7.30;2.30;;;;;;;25.48;44.58;98576.13;106419;1272;22544;-85
2022/06/19 05:31:28;;;;;;;6.60;2.20;;;;;;;25.58;44.45;98577.63;106372;1271;22662;-85
2022/06/19 05:33:55;;;;;;;9.50;2.90;;;;;;;25.68;44.36;98574.92;106302;1271;24199;-85
2022/06/19 05:36:26;;;;;;;8.00;2.20;;;;;;;25.77;44.46;98574.90;106238;1272;22802;-86
2022/06/19 05:38:54;;;;;;;6.40;1.80;;;;;;;25.88;44.35;98565.06;106304;1271;22540;-86
2022/06/19 05:41:26;;;;;;;5.50;1.70;;;;;;;25.96;44.22;98560.54;106446;1271;22647;-88
2022/06/19 05:43:56;;;;;;;8.10;1.80;;;;;;;25.99;44.02;98556.61;106444;1274;22600;-85
2022/06/19 05:46:23;;;;;;;8.40;2.00;;;;;;;26.02;44.04;98551.66;106499;1271;24788;-85
2022/06/19 05:48:50;;;;;;;9.40;1.90;;;;;;;26.08;43.94;98549.63;106213;1272;22544;-90
2022/06/19 05:51:21;;;;;;;9.40;2.10;;;;;;;26.15;43.95;98545.04;106385;1271;22573;-85
2022/06/19 05:53:52;;;;;;;11.30;2.80;;;;;;;26.23;43.84;98540.01;106441;1271;25454;-85
2022/06/19 05:56:25;;;;;;;9.60;2.40;;;;;;;26.30;43.73;98545.38;106637;1271;22667;-85
2022/06/19 05:58:52;;;;;;;9.30;2.30;;;;;;;26.36;43.54;98547.72;106428;1271;22586;-85
2022/06/19 06:01:21;;;;;;;16.50;2.50;;;;;;;26.43;43.70;98542.83;106371;1272;24176;-89
2022/06/19 06:03:49;;;;;;;12.70;2.20;;;;;;;26.49;43.48;98543.34;106288;1271;23262;-88
2022/06/19 06:06:19;;;;;;;12.30;3.00;;;;;;;26.55;43.48;98543.36;106357;1271;22534;-86
2022/06/19 06:08:50;;;;;;;9.90;2.50;;;;;;;26.62;43.27;98538.61;106734;1269;25349;-85
2022/06/19 06:11:20;;;;;;;10.40;1.90;;;;;;;26.71;43.31;98546.27;106323;1274;22585;-89
2022/06/19 06:13:48;;;;;;;11.90;1.80;;;;;;;26.78;42.98;98538.70;106316;1271;25447;-87
2022/06/19 06:16:17;;;;;;;12.90;2.30;;;;;;;26.86;43.11;98542.08;106301;1271;22657;-86
2022/06/19 06:18:45;;;;;;;14.80;2.60;;;;;;;26.96;43.24;98543.77;106551;1271;22710;-86
2022/06/19 06:21:15;;;;;;;8.60;1.80;;;;;;;27.06;43.06;98546.40;106343;1271;23040;-85
2022/06/19 06:23:42;;;;;;;11.30;2.10;;;;;;;27.11;42.85;98542.98;106369;1271;24004;-89
2022/06/19 06:26:12;;;;;;;11.20;2.10;;;;;;;27.15;42.63;98545.45;106365;1271;22528;-86
2022/06/19 06:28:41;;;;;;;14.50;2.10;;;;;;;27.21;42.68;98546.77;106515;1271;22851;-88
2022/06/19 06:31:09;;;;;;;17.60;2.80;;;;;;;27.30;42.58;98546.63;106447;1271;25470;-84
2022/06/19 06:33:37;;;;;;;10.60;1.90;;;;;;;27.38;42.50;98547.95;106341;1271;24272;-88
2022/06/19 06:36:05;;;;;;;10.80;2.20;;;;;;;27.44;42.20;98543.86;106467;1271;25339;-88
2022/06/19 06:38:32;;;;;;;7.40;1.60;;;;;;;27.52;42.45;98546.48;106394;1272;22903;-87
2022/06/19 06:40:59;;;;;;;12.50;2.00;;;;;;;27.59;42.29;98548.21;106472;1271;22604;-92
2022/06/19 06:43:27;;;;;;;10.30;3.50;;;;;;;27.66;42.23;98554.80;106520;1270;25516;-88
2022/06/19 06:46:13;;;;;;;12.80;2.00;;;;;;;27.77;41.94;98559.98;106211;1272;25294;-88
2022/06/19 06:48:43;;;;;;;10.90;2.10;;;;;;;27.88;41.84;98561.98;106412;1271;24171;-86
2022/06/19 06:51:15;;;;;;;10.20;1.90;;;;;;;27.95;41.83;98559.96;106222;1272;22610;-84
2022/06/19 06:53:48;;;;;;;8.50;2.10;;;;;;;28.05;41.98;98555.76;106425;1271;22535;-86
2022/06/19 06:56:21;;;;;;;6.50;2.10;;;;;;;28.17;41.90;98558.89;106263;1271;22591;-89
2022/06/19 06:58:48;;;;;;;9.90;1.90;;;;;;;28.27;41.99;98557.92;106381;1271;22691;-87
2022/06/19 07:01:24;;;;;;;6.60;2.10;;;;;;;28.35;41.67;98559.35;106343;1271;22582;-85
2022/06/19 07:03:55;;;;;;;5.40;1.90;;;;;;;28.39;41.26;98557.70;106405;1271;25457;-90
2022/06/19 07:06:28;;;;;;;4.80;1.90;;;;;;;28.49;41.79;98556.19;106187;1274;22536;-91
2022/06/19 07:08:59;;;;;;;6.70;1.80;;;;;;;28.68;41.55;98555.59;106176;1274;24360;-89
2022/06/19 07:11:33;;;;;;;9.40;2.00;;;;;;;28.82;41.25;98557.11;106322;1271;23363;-89
2022/06/19 07:14:03;;;;;;;5.10;1.90;;;;;;;28.93;41.26;98558.33;106430;1271;22519;-88
2022/06/19 07:16:35;;;;;;;7.30;2.10;;;;;;;29.06;41.39;98557.95;106241;1274;24252;-88
2022/06/19 07:19:02;;;;;;;4.60;1.80;;;;;;;29.19;41.20;98556.20;106231;1272;25461;-88
2022/06/19 07:21:29;;;;;;;7.50;2.00;;;;;;;29.30;41.16;98558.52;106423;1271;25197;-87
2022/06/19 07:24:01;;;;;;;6.60;2.10;;;;;;;29.47;41.29;98548.40;106473;1271;22688;-89
2022/06/19 07:26:29;;;;;;;5.80;2.00;;;;;;;29.61;40.90;98552.11;106296;1271;22536;-88
2022/06/19 07:29:01;;;;;;;5.10;1.70;;;;;;;29.66;40.92;98550.52;106637;1271;23925;-88
2022/06/19 07:31:34;;;;;;;6.40;1.70;;;;;;;29.74;40.82;98542.13;106440;1271;26834;-88
2022/06/19 07:34:01;;;;;;;6.70;1.80;;;;;;;29.85;40.65;98537.09;106391;1271;22794;-90
2022/06/19 07:36:35;;;;;;;5.40;1.90;;;;;;;29.91;40.66;98525.38;106545;1271;23063;-88
2022/06/19 07:39:04;;;;;;;6.80;2.00;;;;;;;30.04;40.61;98523.84;106349;1271;24976;-90
2022/06/19 07:41:31;;;;;;;6.10;1.60;;;;;;;30.13;40.27;98515.80;106335;1271;25239;-88
2022/06/19 07:43:58;;;;;;;6.40;2.00;;;;;;;30.18;40.38;98508.55;106503;1271;22550;-85
2022/06/19 07:52:18;;;;;;;6.20;2.00;;;;;;;30.34;40.03;98496.86;106284;1271;22547;-89
2022/06/19 07:54:48;;;;;;;7.20;1.90;;;;;;;30.35;39.49;98500.63;106427;1271;22612;-84
2022/06/19 07:57:15;;;;;;;6.50;2.00;;;;;;;30.32;39.91;98494.52;106410;1271;22685;-87
2022/06/19 07:59:42;;;;;;;6.70;2.00;;;;;;;30.39;39.62;98495.05;106247;1272;22528;-89
2022/06/19 08:02:20;;;;;;;9.90;1.70;;;;;;;30.45;39.70;98493.07;106530;1271;22537;-87
2022/06/19 08:04:55;;;;;;;7.20;2.00;;;;;;;30.52;39.56;98492.34;106675;1271;25451;-85
2022/06/19 08:07:24;;;;;;;6.10;1.60;;;;;;;30.64;39.57;98491.14;107076;1271;22525;-86
2022/06/19 08:10:25;;;;;;;6.70;1.70;;;;;;;30.74;39.38;98492.08;106697;1271;25358;-87
2022/06/19 08:12:53;;;;;;;6.60;1.80;;;;;;;30.84;39.28;98487.08;106466;1271;22525;-85
2022/06/19 08:15:46;;;;;;;5.60;2.00;;;;;;;30.84;39.13;98484.15;106331;1271;22550;-87
2022/06/19 08:18:15;;;;;;;7.10;1.60;;;;;;;30.86;39.09;98477.73;106440;1271;22595;-94
2022/06/19 08:20:42;;;;;;;7.10;1.70;;;;;;;30.89;39.05;98473.52;106421;1271;22552;-83
2022/06/19 08:23:09;;;;;;;6.60;1.60;;;;;;;30.88;38.86;98472.59;106424;1271;22840;-86
2022/06/19 08:25:37;;;;;;;6.90;2.10;;;;;;;30.86;38.81;98468.71;106620;1271;22596;-85
2022/06/19 08:28:10;;;;;;;6.50;1.60;;;;;;;30.92;39.07;98463.48;106480;1271;22542;-86
2022/06/19 08:30:42;;;;;;;5.80;1.80;;;;;;;31.07;38.96;98472.04;106462;1271;22617;-87
2022/06/19 08:33:12;;;;;;;8.90;2.10;;;;;;;31.17;38.67;98472.33;106286;1271;22599;-88
2022/06/19 08:35:51;;;;;;;7.90;1.80;;;;;;;31.22;38.56;98476.58;106442;1271;26904;-88
2022/06/19 08:38:23;;;;;;;5.20;1.70;;;;;;;31.25;38.47;98465.66;106571;1271;24194;-87
2022/06/19 08:41:13;;;;;;;7.80;1.80;;;;;;;31.33;38.58;98463.77;106239;1272;22559;-85
2022/06/19 08:44:10;;;;;;;6.90;1.70;;;;;;;31.49;38.55;98463.72;106485;1271;22747;-92
2022/06/19 08:46:56;;;;;;;5.40;1.80;;;;;;;31.65;38.48;98458.73;106309;1271;22621;-86
2022/06/19 08:50:11;;;;;;;5.20;1.90;;;;;;;31.78;38.11;98454.45;106466;1271;22786;-89
2022/06/19 08:53:05;;;;;;;6.90;2.00;;;;;;;31.88;37.98;98451.53;105842;1277;22540;-86
2022/06/19 08:55:47;;;;;;;6.00;1.80;;;;;;;31.97;37.69;98449.22;105991;1277;22546;-85
2022/06/19 08:58:40;;;;;;;12.60;2.00;;;;;;;32.00;37.78;98453.40;105963;1277;25520;-85
2022/06/19 09:01:28;;;;;;;6.20;1.90;;;;;;;32.02;37.76;98447.11;105788;1278;22551;-87
2022/06/19 09:07:34;;;;;;;13.90;2.10;;;;;;;31.96;37.17;98438.17;106058;1277;22700;-87
2022/06/19 09:10:31;;;;;;;11.00;2.00;;;;;;;31.92;36.68;98435.60;105956;1277;22840;-86
2022/06/19 09:13:12;;;;;;;13.80;2.40;;;;;;;31.84;36.69;98430.17;106005;1277;22488;-88
2022/06/19 09:15:59;;;;;;;14.00;2.20;;;;;;;31.80;36.33;98427.98;105857;1278;22646;-86
2022/06/19 09:18:52;;;;;;;28.60;3.20;;;;;;;31.76;36.08;98426.20;106201;1277;22803;-91
2022/06/19 09:21:42;;;;;;;7.40;1.70;;;;;;;31.78;36.48;98419.95;106358;1277;26730;-85
2022/06/19 09:24:38;;;;;;;18.60;2.10;;;;;;;31.84;35.41;98422.40;106027;1277;24253;-87
2022/06/19 09:27:24;;;;;;;36.50;3.70;;;;;;;31.78;35.89;98413.38;106222;1271;22608;-90
2022/06/19 09:30:04;;;;;;;14.80;1.90;;;;;;;31.78;36.05;98403.27;106592;1271;22720;-92
2022/06/19 09:32:50;;;;;;;12.60;1.90;;;;;;;31.84;36.10;98397.98;106383;1271;24485;-88
2022/06/19 09:35:28;;;;;;;21.20;2.40;;;;;;;31.97;36.29;98392.34;106490;1271;25221;-84
2022/06/19 09:38:05;;;;;;;36.00;3.00;;;;;;;32.00;35.39;98386.95;106478;1271;25333;-88
2022/06/19 09:40:41;;;;;;;14.40;2.00;;;;;;;32.00;35.66;98379.27;106370;1271;25386;-86
2022/06/19 14:06:22;;;;;;;;;;;;;;;;;;;;;
2022/06/19 14:09:16;;;;;;;10.90;1.80;;;;;;;34.27;29.52;98155.36;105197;1283;358801;-86
2022/06/19 14:12:16;;;;;;;17.50;2.00;;;;;;;34.21;29.55;98148.73;105437;1283;25201;-86
2022/06/19 14:14:52;;;;;;;10.50;1.90;;;;;;;34.15;29.50;98147.40;105557;1282;22566;-82
2022/06/19 14:17:36;;;;;;;6.90;1.90;;;;;;;34.07;29.40;98152.09;105369;1283;24348;-85
2022/06/19 14:21:06;;;;;;;12.00;2.10;;;;;;;33.96;29.51;98148.98;105646;1283;22540;-91
2022/06/19 14:24:28;;;;;;;9.80;1.70;;;;;;;33.95;29.51;98137.73;104980;1289;22861;-85
2022/06/19 14:27:36;;;;;;;14.10;2.30;;;;;;;33.90;29.37;98122.45;104946;1289;22560;-86
2022/06/19 14:30:32;;;;;;;14.00;1.60;;;;;;;33.87;29.67;98124.84;104729;1290;23916;-86
2022/06/19 14:33:20;;;;;;;12.90;1.70;;;;;;;33.94;29.59;98123.45;105502;1283;24324;-86
2022/06/19 14:36:20;;;;;;;12.50;1.70;;;;;;;34.00;29.53;98120.09;105826;1283;25231;-86
2022/06/19 14:39:47;;;;;;;8.30;1.80;;;;;;;33.97;29.62;98122.21;105493;1282;25273;-86
2022/06/19 14:42:34;;;;;;;12.00;2.10;;;;;;;33.98;29.46;98115.63;105517;1282;24270;-87
2022/06/19 14:45:04;;;;;;;8.60;1.90;;;;;;;33.97;29.57;98112.90;105772;1282;22681;-86
2022/06/19 14:48:02;;;;;;;9.40;1.70;;;;;;;34.03;29.49;98098.52;105407;1282;22647;-88
2022/06/19 14:50:48;;;;;;;11.20;2.00;;;;;;;34.05;29.42;98099.69;105345;1282;22581;-86
2022/06/19 14:54:19;;;;;;;12.20;2.00;;;;;;;34.07;29.44;98086.37;105453;1282;24636;-87
2022/06/19 15:01:05;;;;;;;13.10;1.80;;;;;;;33.88;29.15;98086.73;105370;1285;25519;-85
2022/06/19 15:04:43;;;;;;;;;;;;;;;;;;;;;
2022/06/19 15:07:47;;;;;;;11.50;1.80;;;;;;;33.85;29.08;98069.41;105442;1282;24291;-85
2022/06/19 15:10:37;;;;;;;12.00;1.90;;;;;;;33.91;29.10;98060.42;105325;1282;25584;-84
2022/06/19 15:13:45;;;;;;;8.80;1.90;;;;;;;33.88;28.96;98056.65;105386;1284;24021;-86
2022/06/19 15:17:18;;;;;;;13.00;1.90;;;;;;;33.92;28.94;98049.06;105256;1284;24362;-86
2022/06/19 15:20:23;;;;;;;12.70;2.50;;;;;;;34.05;28.76;98051.10;104877;1290;22545;-87
2022/06/19 15:23:25;;;;;;;;;;;;;;;;;;;;;
2022/06/19 15:26:31;;;;;;;9.40;2.10;;;;;;;34.31;28.84;98047.60;106096;1286;22550;-85
2022/06/19 15:29:28;;;;;;;8.50;2.10;;;;;;;34.72;28.96;98044.98;105166;1286;22886;-88
2022/06/19 15:33:03;;;;;;;11.10;2.30;;;;;;;35.07;28.59;98047.98;104823;1288;22554;-86
2022/06/19 15:36:48;;;;;;;;;;;;;;;;;;;;;
2022/06/19 15:40:28;;;;;;;11.90;2.10;;;;;;;36.35;28.64;98056.83;105385;1286;22547;-86
2022/06/19 15:43:26;;;;;;;11.50;2.40;;;;;;;36.70;28.50;98056.23;105295;1286;21974;-86
2022/06/19 15:46:26;;;;;;;8.50;2.30;;;;;;;37.00;28.36;98056.90;105326;1286;22851;-86
2022/06/19 15:49:02;;;;;;;8.70;2.80;;;;;;;37.20;28.13;98053.73;104806;1286;24375;-84
2022/06/19 15:51:33;;;;;;;8.90;2.50;;;;;;;37.34;27.94;98052.87;105070;1286;25317;-84
2022/06/19 15:54:14;;;;;;;8.60;2.30;;;;;;;37.47;28.12;98049.71;105242;1283;25242;-85
2022/06/19 15:56:57;;;;;;;12.60;2.30;;;;;;;37.71;28.01;98049.13;105816;1280;25436;-87
2022/06/19 15:59:59;;;;;;;14.50;2.80;;;;;;;37.96;28.14;98047.44;105636;1283;24250;-91
2022/06/19 16:03:10;;;;;;;8.60;2.10;;;;;;;38.25;28.03;98049.60;105725;1280;22640;-85
2022/06/19 16:06:33;;;;;;;;;;;;;;;;;;;;;
2022/06/19 16:10:09;;;;;;;;;;;;;;;;;;;;;
2022/06/19 16:14:02;;;;;;;10.30;2.70;;;;;;;38.47;27.31;98055.39;105427;1281;22646;-87
2022/06/19 16:16:37;;;;;;;11.10;2.30;;;;;;;38.37;27.21;98053.02;105713;1280;25628;-85
2022/06/19 16:19:36;;;;;;;11.70;2.40;;;;;;;38.31;27.02;98050.42;105626;1281;22540;-86
2022/06/19 16:23:15;;;;;;;9.50;2.40;;;;;;;38.17;27.00;98049.69;105996;1280;22560;-85
2022/06/19 16:26:28;;;;;;;;;;;;;;;;;;;;;
2022/06/19 16:29:12;;;;;;;;;;;;;;;;;;;;;
2022/06/19 16:32:36;;;;;;;;;;;;;;;;;;;;;
2022/06/19 16:45:56;;;;;;;9.80;2.20;;;;;;;39.01;26.49;98039.66;105037;1286;23207;-86
2022/06/19 16:49:09;;;;;;;9.00;2.20;;;;;;;38.94;26.60;98036.67;105343;1283;24788;-87
2022/06/19 16:52:09;;;;;;;10.80;2.40;;;;;;;39.09;26.77;98033.48;105049;1287;22724;-86
2022/06/19 16:55:14;;;;;;;;;;;;;;;;;;;;;
2022/06/19 16:59:28;;;;;;;8.70;2.30;;;;;;;39.36;26.47;98029.87;105206;1287;22571;-84
2022/06/19 17:02:23;;;;;;;12.60;2.50;;;;;;;38.44;26.50;98024.15;104115;1297;21972;-87
2022/06/19 17:06:30;;;;;;;8.30;2.20;;;;;;;37.29;26.96;98022.02;104168;1297;25377;-83
2022/06/19 17:10:01;;;;;;;9.70;2.30;;;;;;;36.18;27.27;98018.14;104077;1297;24291;-85
2022/06/19 17:13:18;;;;;;;8.80;2.40;;;;;;;35.55;27.06;98015.92;104547;1293;22765;-85
2022/06/19 17:16:38;;;;;;;;;;;;;;;;;;;;;
2022/06/19 17:19:45;;;;;;;11.50;2.30;;;;;;;34.25;27.41;98009.71;104401;1292;25946;-86
2022/06/19 17:23:28;;;;;;;;;;;;;;;;;;;;;
2022/06/19 17:26:44;;;;;;;10.10;2.30;;;;;;;33.19;27.90;98008.67;104413;1294;22835;-85
2022/06/19 17:30:42;;;;;;;8.20;1.90;;;;;;;32.83;28.05;98005.34;104897;1285;22742;-85
2022/06/19 17:34:21;;;;;;;;;;;;;;;;;;;;;
2022/06/19 17:38:26;;;;;;;8.80;2.40;;;;;;;32.17;28.60;98002.11;104913;1287;22575;-88